sensor_id;sensor_type;location;lat;lon;timestamp;P1;durP1;ratioP1;P2;durP2;ratioP2
12383;SDS011;6256;63.808;20.336;2022-07-21T00:01:06;1.77;;;1.23;;
12383;SDS011;6256;63.808;20.336;2022-07-21T00:03:32;1.30;;;1.20;;
12383;SDS011;6256;63.808;20.336;2022-07-21T00:05:58;2.47;;;1.40;;
12383;SDS011;6256;63.808;20.336;2022-07-21T00:08:24;2.27;;;1.40;;
12383;SDS011;6256;63.808;20.336;2022-07-21T00:10:50;1.87;;;1.50;;
12383;SDS011;6256;63.808;20.336;2022-07-21T00:13:17;3.40;;;1.70;;
12383;SDS011;6256;63.808;20.336;2022-07-21T00:15:43;1.67;;;1.33;;
12383;SDS011;6256;63.808;20.336;2022-07-21T00:18:09;1.50;;;1.40;;
12383;SDS011;6256;63.808;20.336;2022-07-21T00:20:36;1.60;;;1.50;;
12383;SDS011;6256;63.808;20.336;2022-07-21T00:23:01;1.10;;;1.00;;
12383;SDS011;6256;63.808;20.336;2022-07-21T00:25:27;1.53;;;1.40;;
12383;SDS011;6256;63.808;20.336;2022-07-21T00:27:54;2.27;;;1.50;;
12383;SDS011;6256;63.808;20.336;2022-07-21T00:30:20;1.50;;;1.40;;
12383;SDS011;6256;63.808;20.336;2022-07-21T00:32:46;1.50;;;1.40;;
12383;SDS011;6256;63.808;20.336;2022-07-21T00:35:12;1.73;;;1.63;;
12383;SDS011;6256;63.808;20.336;2022-07-21T00:37:38;1.60;;;1.50;;
12383;SDS011;6256;63.808;20.336;2022-07-21T00:40:06;1.80;;;1.60;;
12383;SDS011;6256;63.808;20.336;2022-07-21T00:42:33;1.87;;;1.33;;
12383;SDS011;6256;63.808;20.336;2022-07-21T00:45:00;1.83;;;1.50;;
12383;SDS011;6256;63.808;20.336;2022-07-21T00:47:28;1.60;;;1.50;;
12383;SDS011;6256;63.808;20.336;2022-07-21T00:49:55;1.60;;;1.50;;
12383;SDS011;6256;63.808;20.336;2022-07-21T00:52:22;2.80;;;1.60;;
12383;SDS011;6256;63.808;20.336;2022-07-21T00:54:48;1.77;;;1.60;;
12383;SDS011;6256;63.808;20.336;2022-07-21T00:57:14;2.90;;;1.37;;
12383;SDS011;6256;63.808;20.336;2022-07-21T00:59:41;1.60;;;1.37;;
12383;SDS011;6256;63.808;20.336;2022-07-21T01:02:07;3.03;;;1.70;;
12383;SDS011;6256;63.808;20.336;2022-07-21T01:04:34;2.40;;;1.30;;
12383;SDS011;6256;63.808;20.336;2022-07-21T01:07:02;1.60;;;1.40;;
12383;SDS011;6256;63.808;20.336;2022-07-21T01:09:29;1.83;;;1.60;;
12383;SDS011;6256;63.808;20.336;2022-07-21T01:11:55;1.50;;;1.40;;
12383;SDS011;6256;63.808;20.336;2022-07-21T01:14:21;1.30;;;1.23;;
12383;SDS011;6256;63.808;20.336;2022-07-21T01:16:47;1.90;;;1.13;;
12383;SDS011;6256;63.808;20.336;2022-07-21T01:19:13;2.37;;;1.47;;
12383;SDS011;6256;63.808;20.336;2022-07-21T01:21:39;2.17;;;1.43;;
12383;SDS011;6256;63.808;20.336;2022-07-21T01:24:07;2.00;;;1.33;;
12383;SDS011;6256;63.808;20.336;2022-07-21T01:26:43;1.93;;;1.63;;
12383;SDS011;6256;63.808;20.336;2022-07-21T01:29:13;1.80;;;1.60;;
12383;SDS011;6256;63.808;20.336;2022-07-21T01:31:41;2.77;;;1.60;;
12383;SDS011;6256;63.808;20.336;2022-07-21T01:34:08;1.60;;;1.50;;
12383;SDS011;6256;63.808;20.336;2022-07-21T01:36:34;1.60;;;1.50;;
12383;SDS011;6256;63.808;20.336;2022-07-21T01:39:01;1.87;;;1.60;;
12383;SDS011;6256;63.808;20.336;2022-07-21T01:41:47;1.70;;;1.60;;
12383;SDS011;6256;63.808;20.336;2022-07-21T01:44:12;2.00;;;1.70;;
12383;SDS011;6256;63.808;20.336;2022-07-21T01:46:40;1.50;;;1.40;;
12383;SDS011;6256;63.808;20.336;2022-07-21T01:49:11;2.53;;;1.53;;
12383;SDS011;6256;63.808;20.336;2022-07-21T01:51:38;2.10;;;1.90;;
12383;SDS011;6256;63.808;20.336;2022-07-21T01:54:05;2.60;;;1.80;;
12383;SDS011;6256;63.808;20.336;2022-07-21T01:56:32;1.93;;;1.73;;
12383;SDS011;6256;63.808;20.336;2022-07-21T01:58:58;3.10;;;1.80;;
12383;SDS011;6256;63.808;20.336;2022-07-21T02:01:25;2.00;;;1.80;;
12383;SDS011;6256;63.808;20.336;2022-07-21T02:03:52;2.37;;;1.83;;
12383;SDS011;6256;63.808;20.336;2022-07-21T02:06:18;2.03;;;1.80;;
12383;SDS011;6256;63.808;20.336;2022-07-21T02:08:44;2.73;;;1.70;;
12383;SDS011;6256;63.808;20.336;2022-07-21T02:11:13;2.40;;;1.90;;
12383;SDS011;6256;63.808;20.336;2022-07-21T02:13:40;2.60;;;1.70;;
12383;SDS011;6256;63.808;20.336;2022-07-21T02:16:06;2.83;;;1.87;;
12383;SDS011;6256;63.808;20.336;2022-07-21T02:18:33;2.60;;;2.10;;
12383;SDS011;6256;63.808;20.336;2022-07-21T02:20:59;2.00;;;1.67;;
12383;SDS011;6256;63.808;20.336;2022-07-21T02:23:25;2.00;;;1.80;;
12383;SDS011;6256;63.808;20.336;2022-07-21T02:25:51;2.50;;;1.90;;
12383;SDS011;6256;63.808;20.336;2022-07-21T02:28:20;2.50;;;1.63;;
12383;SDS011;6256;63.808;20.336;2022-07-21T02:30:46;2.10;;;1.90;;
12383;SDS011;6256;63.808;20.336;2022-07-21T02:33:13;1.90;;;1.80;;
12383;SDS011;6256;63.808;20.336;2022-07-21T02:35:39;2.20;;;2.07;;
12383;SDS011;6256;63.808;20.336;2022-07-21T02:38:09;1.93;;;1.80;;
12383;SDS011;6256;63.808;20.336;2022-07-21T02:40:36;1.73;;;1.63;;
12383;SDS011;6256;63.808;20.336;2022-07-21T02:43:03;1.80;;;1.70;;
12383;SDS011;6256;63.808;20.336;2022-07-21T02:45:30;1.93;;;1.83;;
12383;SDS011;6256;63.808;20.336;2022-07-21T02:47:57;1.93;;;1.80;;
12383;SDS011;6256;63.808;20.336;2022-07-21T02:50:29;1.83;;;1.67;;
12383;SDS011;6256;63.808;20.336;2022-07-21T02:52:57;1.90;;;1.73;;
12383;SDS011;6256;63.808;20.336;2022-07-21T02:55:25;1.87;;;1.63;;
12383;SDS011;6256;63.808;20.336;2022-07-21T02:58:11;2.20;;;2.00;;
12383;SDS011;6256;63.808;20.336;2022-07-21T03:00:42;2.77;;;2.00;;
12383;SDS011;6256;63.808;20.336;2022-07-21T03:03:09;2.27;;;1.90;;
12383;SDS011;6256;63.808;20.336;2022-07-21T03:05:36;2.07;;;1.77;;
12383;SDS011;6256;63.808;20.336;2022-07-21T03:08:02;1.83;;;1.73;;
12383;SDS011;6256;63.808;20.336;2022-07-21T03:10:29;1.90;;;1.80;;
12383;SDS011;6256;63.808;20.336;2022-07-21T03:12:55;1.93;;;1.47;;
12383;SDS011;6256;63.808;20.336;2022-07-21T03:15:21;1.90;;;1.80;;
12383;SDS011;6256;63.808;20.336;2022-07-21T03:17:47;1.70;;;1.60;;
12383;SDS011;6256;63.808;20.336;2022-07-21T03:20:12;1.63;;;1.53;;
12383;SDS011;6256;63.808;20.336;2022-07-21T03:22:38;1.77;;;1.67;;
12383;SDS011;6256;63.808;20.336;2022-07-21T03:25:04;2.10;;;1.90;;
12383;SDS011;6256;63.808;20.336;2022-07-21T03:27:30;1.70;;;1.55;;
12383;SDS011;6256;63.808;20.336;2022-07-21T03:30:01;1.70;;;1.60;;
12383;SDS011;6256;63.808;20.336;2022-07-21T03:32:33;2.50;;;1.70;;
12383;SDS011;6256;63.808;20.336;2022-07-21T03:34:59;1.80;;;1.70;;
12383;SDS011;6256;63.808;20.336;2022-07-21T03:37:25;1.58;;;1.33;;
12383;SDS011;6256;63.808;20.336;2022-07-21T03:39:51;1.77;;;1.67;;
12383;SDS011;6256;63.808;20.336;2022-07-21T03:42:17;2.10;;;1.90;;
12383;SDS011;6256;63.808;20.336;2022-07-21T03:44:43;1.70;;;1.60;;
12383;SDS011;6256;63.808;20.336;2022-07-21T03:47:09;1.52;;;1.42;;
12383;SDS011;6256;63.808;20.336;2022-07-21T03:49:34;1.80;;;1.70;;
12383;SDS011;6256;63.808;20.336;2022-07-21T03:52:01;1.70;;;1.60;;
12383;SDS011;6256;63.808;20.336;2022-07-21T03:54:27;2.28;;;1.73;;
12383;SDS011;6256;63.808;20.336;2022-07-21T03:56:52;1.50;;;1.40;;
12383;SDS011;6256;63.808;20.336;2022-07-21T03:59:18;1.60;;;1.50;;
12383;SDS011;6256;63.808;20.336;2022-07-21T04:01:44;1.77;;;1.67;;
12383;SDS011;6256;63.808;20.336;2022-07-21T04:04:09;2.60;;;1.60;;
12383;SDS011;6256;63.808;20.336;2022-07-21T04:06:36;1.80;;;1.70;;
12383;SDS011;6256;63.808;20.336;2022-07-21T04:09:02;1.80;;;1.70;;
12383;SDS011;6256;63.808;20.336;2022-07-21T04:11:28;1.83;;;1.73;;
12383;SDS011;6256;63.808;20.336;2022-07-21T04:13:55;1.77;;;1.67;;
12383;SDS011;6256;63.808;20.336;2022-07-21T04:16:21;1.50;;;1.40;;
12383;SDS011;6256;63.808;20.336;2022-07-21T04:18:47;1.80;;;1.70;;
12383;SDS011;6256;63.808;20.336;2022-07-21T04:21:13;1.83;;;1.70;;
12383;SDS011;6256;63.808;20.336;2022-07-21T04:23:39;1.70;;;1.60;;
12383;SDS011;6256;63.808;20.336;2022-07-21T04:26:05;2.90;;;1.80;;
12383;SDS011;6256;63.808;20.336;2022-07-21T04:28:31;1.73;;;1.63;;
12383;SDS011;6256;63.808;20.336;2022-07-21T04:30:56;1.70;;;1.60;;
12383;SDS011;6256;63.808;20.336;2022-07-21T04:33:22;1.98;;;1.50;;
12383;SDS011;6256;63.808;20.336;2022-07-21T04:35:48;1.60;;;1.50;;
12383;SDS011;6256;63.808;20.336;2022-07-21T04:38:13;1.60;;;1.50;;
12383;SDS011;6256;63.808;20.336;2022-07-21T04:40:39;2.38;;;1.65;;
12383;SDS011;6256;63.808;20.336;2022-07-21T04:43:08;2.47;;;1.67;;
12383;SDS011;6256;63.808;20.336;2022-07-21T04:45:33;1.73;;;1.63;;
12383;SDS011;6256;63.808;20.336;2022-07-21T04:47:59;2.05;;;1.73;;
12383;SDS011;6256;63.808;20.336;2022-07-21T04:50:26;1.50;;;1.40;;
12383;SDS011;6256;63.808;20.336;2022-07-21T04:52:52;1.70;;;1.60;;
12383;SDS011;6256;63.808;20.336;2022-07-21T04:55:19;1.80;;;1.60;;
12383;SDS011;6256;63.808;20.336;2022-07-21T04:57:46;1.88;;;1.77;;
12383;SDS011;6256;63.808;20.336;2022-07-21T05:00:16;2.22;;;2.03;;
12383;SDS011;6256;63.808;20.336;2022-07-21T05:02:44;2.00;;;1.90;;
12383;SDS011;6256;63.808;20.336;2022-07-21T05:05:11;3.25;;;2.20;;
12383;SDS011;6256;63.808;20.336;2022-07-21T05:07:37;3.10;;;2.33;;
12383;SDS011;6256;63.808;20.336;2022-07-21T05:10:07;3.13;;;2.20;;
12383;SDS011;6256;63.808;20.336;2022-07-21T05:12:34;2.53;;;2.30;;
12383;SDS011;6256;63.808;20.336;2022-07-21T05:15:00;1.92;;;1.83;;
12383;SDS011;6256;63.808;20.336;2022-07-21T05:17:27;2.75;;;1.90;;
12383;SDS011;6256;63.808;20.336;2022-07-21T05:19:52;2.13;;;1.92;;
12383;SDS011;6256;63.808;20.336;2022-07-21T05:22:18;2.03;;;1.92;;
12383;SDS011;6256;63.808;20.336;2022-07-21T05:24:44;2.50;;;2.30;;
12383;SDS011;6256;63.808;20.336;2022-07-21T05:27:10;2.88;;;2.55;;
12383;SDS011;6256;63.808;20.336;2022-07-21T05:29:36;2.58;;;2.38;;
12383;SDS011;6256;63.808;20.336;2022-07-21T05:32:02;3.03;;;2.72;;
12383;SDS011;6256;63.808;20.336;2022-07-21T05:34:28;4.22;;;2.70;;
12383;SDS011;6256;63.808;20.336;2022-07-21T05:36:54;2.85;;;2.65;;
12383;SDS011;6256;63.808;20.336;2022-07-21T05:39:20;3.42;;;2.85;;
12383;SDS011;6256;63.808;20.336;2022-07-21T05:41:46;3.92;;;2.90;;
12383;SDS011;6256;63.808;20.336;2022-07-21T05:44:12;3.05;;;2.75;;
12383;SDS011;6256;63.808;20.336;2022-07-21T05:46:38;3.33;;;2.53;;
12383;SDS011;6256;63.808;20.336;2022-07-21T05:49:03;2.60;;;2.40;;
12383;SDS011;6256;63.808;20.336;2022-07-21T05:51:29;3.08;;;2.78;;
12383;SDS011;6256;63.808;20.336;2022-07-21T05:53:55;3.08;;;2.63;;
12383;SDS011;6256;63.808;20.336;2022-07-21T05:56:20;3.58;;;2.72;;
12383;SDS011;6256;63.808;20.336;2022-07-21T05:58:46;3.55;;;2.83;;
12383;SDS011;6256;63.808;20.336;2022-07-21T06:01:12;3.10;;;2.80;;
12383;SDS011;6256;63.808;20.336;2022-07-21T06:03:40;3.30;;;3.00;;
12383;SDS011;6256;63.808;20.336;2022-07-21T06:06:07;3.33;;;3.03;;
12383;SDS011;6256;63.808;20.336;2022-07-21T06:08:33;4.30;;;3.00;;
12383;SDS011;6256;63.808;20.336;2022-07-21T06:11:01;3.58;;;3.28;;
12383;SDS011;6256;63.808;20.336;2022-07-21T06:13:27;3.45;;;3.15;;
12383;SDS011;6256;63.808;20.336;2022-07-21T06:15:52;3.30;;;3.00;;
12383;SDS011;6256;63.808;20.336;2022-07-21T06:18:18;4.07;;;3.53;;
12383;SDS011;6256;63.808;20.336;2022-07-21T06:20:44;4.47;;;3.60;;
12383;SDS011;6256;63.808;20.336;2022-07-21T06:23:09;3.90;;;3.40;;
12383;SDS011;6256;63.808;20.336;2022-07-21T06:25:35;4.00;;;3.60;;
12383;SDS011;6256;63.808;20.336;2022-07-21T06:28:01;4.10;;;3.70;;
12383;SDS011;6256;63.808;20.336;2022-07-21T06:30:27;4.18;;;3.30;;
12383;SDS011;6256;63.808;20.336;2022-07-21T06:32:53;6.22;;;3.50;;
12383;SDS011;6256;63.808;20.336;2022-07-21T06:35:19;4.78;;;3.53;;
12383;SDS011;6256;63.808;20.336;2022-07-21T06:37:48;4.20;;;3.80;;
12383;SDS011;6256;63.808;20.336;2022-07-21T06:40:13;4.47;;;3.92;;
12383;SDS011;6256;63.808;20.336;2022-07-21T06:42:39;4.93;;;3.75;;
12383;SDS011;6256;63.808;20.336;2022-07-21T06:45:08;6.05;;;4.03;;
12383;SDS011;6256;63.808;20.336;2022-07-21T06:47:34;6.03;;;3.95;;
12383;SDS011;6256;63.808;20.336;2022-07-21T06:50:00;4.88;;;4.18;;
12383;SDS011;6256;63.808;20.336;2022-07-21T06:52:30;5.55;;;4.03;;
12383;SDS011;6256;63.808;20.336;2022-07-21T06:54:57;4.07;;;3.67;;
12383;SDS011;6256;63.808;20.336;2022-07-21T06:57:23;4.15;;;3.65;;
12383;SDS011;6256;63.808;20.336;2022-07-21T06:59:49;4.68;;;4.00;;
12383;SDS011;6256;63.808;20.336;2022-07-21T07:02:15;4.53;;;3.90;;
12383;SDS011;6256;63.808;20.336;2022-07-21T07:04:40;4.57;;;3.83;;
12383;SDS011;6256;63.808;20.336;2022-07-21T07:07:08;4.68;;;4.15;;
12383;SDS011;6256;63.808;20.336;2022-07-21T07:09:34;4.35;;;3.95;;
12383;SDS011;6256;63.808;20.336;2022-07-21T07:12:00;4.75;;;3.90;;
12383;SDS011;6256;63.808;20.336;2022-07-21T07:14:32;4.43;;;3.78;;
12383;SDS011;6256;63.808;20.336;2022-07-21T07:16:59;5.03;;;3.67;;
12383;SDS011;6256;63.808;20.336;2022-07-21T07:19:26;4.93;;;4.43;;
12383;SDS011;6256;63.808;20.336;2022-07-21T07:21:53;4.35;;;3.95;;
12383;SDS011;6256;63.808;20.336;2022-07-21T07:24:18;3.90;;;3.50;;
12383;SDS011;6256;63.808;20.336;2022-07-21T07:26:46;5.53;;;3.45;;
12383;SDS011;6256;63.808;20.336;2022-07-21T07:29:12;4.63;;;3.70;;
12383;SDS011;6256;63.808;20.336;2022-07-21T07:31:38;4.10;;;3.78;;
12383;SDS011;6256;63.808;20.336;2022-07-21T07:34:04;4.30;;;3.88;;
12383;SDS011;6256;63.808;20.336;2022-07-21T07:36:30;4.30;;;3.70;;
12383;SDS011;6256;63.808;20.336;2022-07-21T07:38:57;4.20;;;3.80;;
12383;SDS011;6256;63.808;20.336;2022-07-21T07:41:24;3.58;;;3.28;;
12383;SDS011;6256;63.808;20.336;2022-07-21T07:43:51;4.80;;;3.92;;
12383;SDS011;6256;63.808;20.336;2022-07-21T07:46:18;4.78;;;3.83;;
12383;SDS011;6256;63.808;20.336;2022-07-21T07:48:44;5.53;;;4.10;;
12383;SDS011;6256;63.808;20.336;2022-07-21T07:51:12;4.10;;;3.67;;
12383;SDS011;6256;63.808;20.336;2022-07-21T07:53:39;4.38;;;3.78;;
12383;SDS011;6256;63.808;20.336;2022-07-21T07:56:05;4.82;;;4.07;;
12383;SDS011;6256;63.808;20.336;2022-07-21T07:58:32;4.88;;;4.15;;
12383;SDS011;6256;63.808;20.336;2022-07-21T08:00:58;4.45;;;3.90;;
12383;SDS011;6256;63.808;20.336;2022-07-21T08:03:25;4.10;;;3.75;;
12383;SDS011;6256;63.808;20.336;2022-07-21T08:05:52;4.70;;;4.28;;
12383;SDS011;6256;63.808;20.336;2022-07-21T08:08:25;6.25;;;5.00;;
12383;SDS011;6256;63.808;20.336;2022-07-21T08:10:51;4.95;;;4.45;;
12383;SDS011;6256;63.808;20.336;2022-07-21T08:13:17;6.53;;;4.55;;
12383;SDS011;6256;63.808;20.336;2022-07-21T08:15:43;6.40;;;4.43;;
12383;SDS011;6256;63.808;20.336;2022-07-21T08:18:10;5.28;;;4.38;;
12383;SDS011;6256;63.808;20.336;2022-07-21T08:20:36;5.45;;;4.95;;
12383;SDS011;6256;63.808;20.336;2022-07-21T08:23:03;5.00;;;4.25;;
12383;SDS011;6256;63.808;20.336;2022-07-21T08:25:29;6.15;;;4.00;;
12383;SDS011;6256;63.808;20.336;2022-07-21T08:27:55;7.10;;;4.95;;
12383;SDS011;6256;63.808;20.336;2022-07-21T08:30:21;6.95;;;5.28;;
12383;SDS011;6256;63.808;20.336;2022-07-21T08:32:46;6.60;;;4.38;;
12383;SDS011;6256;63.808;20.336;2022-07-21T08:35:12;5.25;;;4.75;;
12383;SDS011;6256;63.808;20.336;2022-07-21T08:37:38;5.55;;;4.53;;
12383;SDS011;6256;63.808;20.336;2022-07-21T08:40:05;6.13;;;4.97;;
12383;SDS011;6256;63.808;20.336;2022-07-21T08:42:33;5.68;;;5.10;;
12383;SDS011;6256;63.808;20.336;2022-07-21T08:44:59;7.78;;;4.57;;
12383;SDS011;6256;63.808;20.336;2022-07-21T08:47:25;5.03;;;4.60;;
12383;SDS011;6256;63.808;20.336;2022-07-21T08:49:51;9.27;;;5.38;;
12383;SDS011;6256;63.808;20.336;2022-07-21T08:52:18;5.53;;;4.70;;
12383;SDS011;6256;63.808;20.336;2022-07-21T08:54:44;5.53;;;4.80;;
12383;SDS011;6256;63.808;20.336;2022-07-21T08:57:10;6.35;;;5.00;;
12383;SDS011;6256;63.808;20.336;2022-07-21T08:59:35;5.28;;;4.65;;
12383;SDS011;6256;63.808;20.336;2022-07-21T09:02:01;4.93;;;4.10;;
12383;SDS011;6256;63.808;20.336;2022-07-21T09:04:29;8.18;;;5.30;;
12383;SDS011;6256;63.808;20.336;2022-07-21T09:07:04;5.68;;;4.72;;
12383;SDS011;6256;63.808;20.336;2022-07-21T09:09:31;6.35;;;5.00;;
12383;SDS011;6256;63.808;20.336;2022-07-21T09:11:58;5.50;;;4.78;;
12383;SDS011;6256;63.808;20.336;2022-07-21T09:14:26;6.90;;;5.22;;
12383;SDS011;6256;63.808;20.336;2022-07-21T09:16:55;6.47;;;5.20;;
12383;SDS011;6256;63.808;20.336;2022-07-21T09:19:24;5.70;;;4.90;;
12383;SDS011;6256;63.808;20.336;2022-07-21T09:21:59;5.82;;;4.93;;
12383;SDS011;6256;63.808;20.336;2022-07-21T09:24:30;6.65;;;5.15;;
12383;SDS011;6256;63.808;20.336;2022-07-21T09:35:04;5.75;;;4.90;;
12383;SDS011;6256;63.808;20.336;2022-07-21T09:37:32;5.45;;;4.70;;
12383;SDS011;6256;63.808;20.336;2022-07-21T09:39:59;5.18;;;4.65;;
12383;SDS011;6256;63.808;20.336;2022-07-21T09:45:05;6.88;;;5.75;;
12383;SDS011;6256;63.808;20.336;2022-07-21T09:47:31;5.85;;;4.50;;
12383;SDS011;6256;63.808;20.336;2022-07-21T09:49:58;6.43;;;4.80;;
12383;SDS011;6256;63.808;20.336;2022-07-21T09:52:26;5.05;;;4.55;;
12383;SDS011;6256;63.808;20.336;2022-07-21T09:54:54;6.35;;;5.22;;
12383;SDS011;6256;63.808;20.336;2022-07-21T09:57:21;7.03;;;4.63;;
12383;SDS011;6256;63.808;20.336;2022-07-21T09:59:47;5.90;;;5.30;;
12383;SDS011;6256;63.808;20.336;2022-07-21T10:02:21;7.22;;;4.95;;
12383;SDS011;6256;63.808;20.336;2022-07-21T10:07:31;6.28;;;5.32;;
12383;SDS011;6256;63.808;20.336;2022-07-21T10:09:58;6.03;;;5.30;;
12383;SDS011;6256;63.808;20.336;2022-07-21T10:12:25;7.60;;;5.63;;
12383;SDS011;6256;63.808;20.336;2022-07-21T10:14:52;6.18;;;5.43;;
12383;SDS011;6256;63.808;20.336;2022-07-21T10:17:19;5.75;;;5.20;;
12383;SDS011;6256;63.808;20.336;2022-07-21T10:19:56;5.80;;;4.78;;
12383;SDS011;6256;63.808;20.336;2022-07-21T10:22:56;5.10;;;4.57;;
12383;SDS011;6256;63.808;20.336;2022-07-21T10:25:39;9.18;;;5.82;;
12383;SDS011;6256;63.808;20.336;2022-07-21T10:30:41;8.50;;;5.72;;
12383;SDS011;6256;63.808;20.336;2022-07-21T10:33:16;6.88;;;5.45;;
12383;SDS011;6256;63.808;20.336;2022-07-21T10:35:45;6.00;;;5.35;;
12383;SDS011;6256;63.808;20.336;2022-07-21T10:38:26;5.55;;;4.97;;
12383;SDS011;6256;63.808;20.336;2022-07-21T10:40:57;6.78;;;5.35;;
12383;SDS011;6256;63.808;20.336;2022-07-21T10:45:49;6.93;;;5.40;;
12383;SDS011;6256;63.808;20.336;2022-07-21T10:51:07;8.50;;;5.93;;
12383;SDS011;6256;63.808;20.336;2022-07-21T10:53:34;6.63;;;5.45;;
12383;SDS011;6256;63.808;20.336;2022-07-21T10:56:01;7.07;;;5.45;;
12383;SDS011;6256;63.808;20.336;2022-07-21T11:03:34;7.40;;;5.68;;
12383;SDS011;6256;63.808;20.336;2022-07-21T11:14:06;5.93;;;5.22;;
12383;SDS011;6256;63.808;20.336;2022-07-21T11:22:09;5.78;;;5.28;;
12383;SDS011;6256;63.808;20.336;2022-07-21T11:24:45;6.05;;;5.35;;
12383;SDS011;6256;63.808;20.336;2022-07-21T11:27:18;6.68;;;5.15;;
12383;SDS011;6256;63.808;20.336;2022-07-21T11:29:46;5.57;;;5.07;;
12383;SDS011;6256;63.808;20.336;2022-07-21T11:32:14;5.35;;;4.70;;
12383;SDS011;6256;63.808;20.336;2022-07-21T11:34:55;8.23;;;5.40;;
12383;SDS011;6256;63.808;20.336;2022-07-21T11:39:58;6.30;;;4.93;;
12383;SDS011;6256;63.808;20.336;2022-07-21T11:42:25;6.00;;;4.60;;
12383;SDS011;6256;63.808;20.336;2022-07-21T11:44:52;5.50;;;4.35;;
12383;SDS011;6256;63.808;20.336;2022-07-21T11:47:18;6.15;;;5.65;;
12383;SDS011;6256;63.808;20.336;2022-07-21T11:49:45;6.60;;;5.10;;
12383;SDS011;6256;63.808;20.336;2022-07-21T11:52:15;6.78;;;4.93;;
12383;SDS011;6256;63.808;20.336;2022-07-21T11:54:49;5.95;;;5.35;;
12383;SDS011;6256;63.808;20.336;2022-07-21T11:57:18;5.10;;;4.60;;
12383;SDS011;6256;63.808;20.336;2022-07-21T11:59:45;5.00;;;4.45;;
12383;SDS011;6256;63.808;20.336;2022-07-21T12:02:21;5.72;;;5.22;;
12383;SDS011;6256;63.808;20.336;2022-07-21T12:04:52;5.85;;;5.13;;
12383;SDS011;6256;63.808;20.336;2022-07-21T12:09:50;5.38;;;4.80;;
12383;SDS011;6256;63.808;20.336;2022-07-21T12:20:10;6.03;;;5.45;;
12383;SDS011;6256;63.808;20.336;2022-07-21T12:22:44;8.35;;;5.35;;
12383;SDS011;6256;63.808;20.336;2022-07-21T12:25:15;5.43;;;4.93;;
12383;SDS011;6256;63.808;20.336;2022-07-21T12:27:43;5.65;;;5.13;;
12383;SDS011;6256;63.808;20.336;2022-07-21T12:30:29;6.63;;;5.30;;
12383;SDS011;6256;63.808;20.336;2022-07-21T12:33:02;7.45;;;5.75;;
12383;SDS011;6256;63.808;20.336;2022-07-21T12:35:34;5.80;;;5.28;;
12383;SDS011;6256;63.808;20.336;2022-07-21T12:38:06;6.55;;;5.93;;
12383;SDS011;6256;63.808;20.336;2022-07-21T12:40:35;7.85;;;5.43;;
12383;SDS011;6256;63.808;20.336;2022-07-21T12:43:03;7.55;;;5.00;;
12383;SDS011;6256;63.808;20.336;2022-07-21T12:45:29;6.22;;;5.25;;
12383;SDS011;6256;63.808;20.336;2022-07-21T12:48:11;6.03;;;5.30;;
12383;SDS011;6256;63.808;20.336;2022-07-21T12:50:40;7.07;;;5.78;;
12383;SDS011;6256;63.808;20.336;2022-07-21T12:53:13;7.22;;;5.43;;
12383;SDS011;6256;63.808;20.336;2022-07-21T12:55:39;9.38;;;5.90;;
12383;SDS011;6256;63.808;20.336;2022-07-21T12:58:05;12.55;;;6.07;;
12383;SDS011;6256;63.808;20.336;2022-07-21T13:00:31;6.28;;;5.28;;
12383;SDS011;6256;63.808;20.336;2022-07-21T13:02:57;6.28;;;5.65;;
12383;SDS011;6256;63.808;20.336;2022-07-21T13:05:23;5.60;;;5.00;;
12383;SDS011;6256;63.808;20.336;2022-07-21T13:07:50;7.88;;;5.38;;
12383;SDS011;6256;63.808;20.336;2022-07-21T13:10:17;6.15;;;5.25;;
12383;SDS011;6256;63.808;20.336;2022-07-21T13:12:43;5.45;;;5.03;;
12383;SDS011;6256;63.808;20.336;2022-07-21T13:15:09;7.88;;;5.05;;
12383;SDS011;6256;63.808;20.336;2022-07-21T13:17:38;5.82;;;5.20;;
12383;SDS011;6256;63.808;20.336;2022-07-21T13:20:04;6.78;;;4.95;;
12383;SDS011;6256;63.808;20.336;2022-07-21T13:22:31;6.28;;;5.25;;
12383;SDS011;6256;63.808;20.336;2022-07-21T13:24:56;7.07;;;5.75;;
12383;SDS011;6256;63.808;20.336;2022-07-21T13:27:22;6.05;;;5.10;;
12383;SDS011;6256;63.808;20.336;2022-07-21T13:29:48;6.50;;;5.28;;
12383;SDS011;6256;63.808;20.336;2022-07-21T13:32:13;6.53;;;4.80;;
12383;SDS011;6256;63.808;20.336;2022-07-21T13:34:39;5.43;;;4.93;;
12383;SDS011;6256;63.808;20.336;2022-07-21T13:37:05;7.85;;;5.03;;
12383;SDS011;6256;63.808;20.336;2022-07-21T13:39:36;5.63;;;4.90;;
12383;SDS011;6256;63.808;20.336;2022-07-21T13:42:02;5.10;;;4.50;;
12383;SDS011;6256;63.808;20.336;2022-07-21T13:44:29;7.25;;;5.13;;
12383;SDS011;6256;63.808;20.336;2022-07-21T13:46:56;6.60;;;5.10;;
12383;SDS011;6256;63.808;20.336;2022-07-21T13:49:22;6.18;;;5.18;;
12383;SDS011;6256;63.808;20.336;2022-07-21T13:51:48;5.68;;;5.18;;
12383;SDS011;6256;63.808;20.336;2022-07-21T13:54:14;6.95;;;4.85;;
12383;SDS011;6256;63.808;20.336;2022-07-21T13:56:43;5.57;;;5.00;;
12383;SDS011;6256;63.808;20.336;2022-07-21T13:59:09;5.88;;;5.28;;
12383;SDS011;6256;63.808;20.336;2022-07-21T14:01:35;6.40;;;5.05;;
12383;SDS011;6256;63.808;20.336;2022-07-21T14:04:00;5.22;;;4.70;;
12383;SDS011;6256;63.808;20.336;2022-07-21T14:06:26;5.10;;;4.63;;
12383;SDS011;6256;63.808;20.336;2022-07-21T14:08:52;5.35;;;4.65;;
12383;SDS011;6256;63.808;20.336;2022-07-21T14:11:17;7.18;;;4.97;;
12383;SDS011;6256;63.808;20.336;2022-07-21T14:13:43;5.13;;;4.50;;
12383;SDS011;6256;63.808;20.336;2022-07-21T14:16:09;5.10;;;4.60;;
12383;SDS011;6256;63.808;20.336;2022-07-21T14:18:35;7.75;;;5.05;;
12383;SDS011;6256;63.808;20.336;2022-07-21T14:21:01;5.10;;;4.65;;
12383;SDS011;6256;63.808;20.336;2022-07-21T14:23:27;6.05;;;5.28;;
12383;SDS011;6256;63.808;20.336;2022-07-21T14:25:53;6.07;;;5.28;;
12383;SDS011;6256;63.808;20.336;2022-07-21T14:28:19;6.07;;;5.22;;
12383;SDS011;6256;63.808;20.336;2022-07-21T14:30:46;6.00;;;4.85;;
12383;SDS011;6256;63.808;20.336;2022-07-21T14:33:12;5.88;;;5.10;;
12383;SDS011;6256;63.808;20.336;2022-07-21T14:35:37;6.65;;;5.07;;
12383;SDS011;6256;63.808;20.336;2022-07-21T14:38:03;5.30;;;4.60;;
12383;SDS011;6256;63.808;20.336;2022-07-21T14:40:29;6.18;;;5.20;;
12383;SDS011;6256;63.808;20.336;2022-07-21T14:42:55;6.97;;;5.18;;
12383;SDS011;6256;63.808;20.336;2022-07-21T14:45:22;5.35;;;4.85;;
12383;SDS011;6256;63.808;20.336;2022-07-21T14:47:48;5.28;;;4.57;;
12383;SDS011;6256;63.808;20.336;2022-07-21T14:50:15;5.22;;;4.72;;
12383;SDS011;6256;63.808;20.336;2022-07-21T14:52:41;5.60;;;5.07;;
12383;SDS011;6256;63.808;20.336;2022-07-21T14:55:07;5.78;;;5.18;;
12383;SDS011;6256;63.808;20.336;2022-07-21T14:57:34;5.53;;;4.40;;
12383;SDS011;6256;63.808;20.336;2022-07-21T15:00:01;5.18;;;4.50;;
12383;SDS011;6256;63.808;20.336;2022-07-21T15:02:30;5.15;;;4.65;;
12383;SDS011;6256;63.808;20.336;2022-07-21T15:04:56;5.00;;;4.50;;
12383;SDS011;6256;63.808;20.336;2022-07-21T15:07:22;5.88;;;5.03;;
12383;SDS011;6256;63.808;20.336;2022-07-21T15:09:47;6.70;;;4.82;;
12383;SDS011;6256;63.808;20.336;2022-07-21T15:12:13;5.55;;;5.05;;
12383;SDS011;6256;63.808;20.336;2022-07-21T15:14:43;6.32;;;5.15;;
12383;SDS011;6256;63.808;20.336;2022-07-21T15:17:09;5.30;;;4.80;;
12383;SDS011;6256;63.808;20.336;2022-07-21T15:19:35;5.95;;;5.07;;
12383;SDS011;6256;63.808;20.336;2022-07-21T15:22:00;5.57;;;4.97;;
12383;SDS011;6256;63.808;20.336;2022-07-21T15:24:26;6.65;;;5.30;;
12383;SDS011;6256;63.808;20.336;2022-07-21T15:26:52;5.63;;;5.00;;
12383;SDS011;6256;63.808;20.336;2022-07-21T15:29:17;6.40;;;4.97;;
12383;SDS011;6256;63.808;20.336;2022-07-21T15:31:44;6.20;;;5.05;;
12383;SDS011;6256;63.808;20.336;2022-07-21T15:34:13;6.85;;;5.63;;
12383;SDS011;6256;63.808;20.336;2022-07-21T15:36:38;5.20;;;4.60;;
12383;SDS011;6256;63.808;20.336;2022-07-21T15:39:05;5.47;;;4.97;;
12383;SDS011;6256;63.808;20.336;2022-07-21T15:41:34;5.60;;;4.57;;